sensor_id;sensor_type;location;lat;lon;timestamp;P1;durP1;ratioP1;P2;durP2;ratioP2
40471;SDS011;26174;42.908;23.800;2024-01-30T00:02:15;25.77;;;9.63;;
40471;SDS011;26174;42.908;23.800;2024-01-30T00:04:41;22.17;;;10.82;;
40471;SDS011;26174;42.908;23.800;2024-01-30T00:07:07;21.85;;;9.13;;
40471;SDS011;26174;42.908;23.800;2024-01-30T00:09:33;19.23;;;9.45;;
40471;SDS011;26174;42.908;23.800;2024-01-30T00:11:58;14.90;;;7.40;;
40471;SDS011;26174;42.908;23.800;2024-01-30T00:14:24;17.58;;;7.82;;
40471;SDS011;26174;42.908;23.800;2024-01-30T00:16:53;18.88;;;7.97;;
40471;SDS011;26174;42.908;23.800;2024-01-30T00:19:18;18.55;;;7.47;;
40471;SDS011;26174;42.908;23.800;2024-01-30T00:21:44;16.55;;;7.40;;
40471;SDS011;26174;42.908;23.800;2024-01-30T00:24:10;16.80;;;7.93;;
40471;SDS011;26174;42.908;23.800;2024-01-30T00:26:35;18.67;;;7.88;;
40471;SDS011;26174;42.908;23.800;2024-01-30T00:29:01;16.58;;;8.57;;
40471;SDS011;26174;42.908;23.800;2024-01-30T00:31:27;19.20;;;8.57;;
40471;SDS011;26174;42.908;23.800;2024-01-30T00:33:54;19.08;;;8.13;;
40471;SDS011;26174;42.908;23.800;2024-01-30T00:36:19;20.33;;;8.20;;
40471;SDS011;26174;42.908;23.800;2024-01-30T00:38:45;16.40;;;7.38;;
40471;SDS011;26174;42.908;23.800;2024-01-30T00:41:10;15.88;;;7.68;;
40471;SDS011;26174;42.908;23.800;2024-01-30T00:43:36;15.18;;;7.35;;
40471;SDS011;26174;42.908;23.800;2024-01-30T00:46:02;16.73;;;7.78;;
40471;SDS011;26174;42.908;23.800;2024-01-30T00:48:28;14.32;;;7.50;;
40471;SDS011;26174;42.908;23.800;2024-01-30T00:50:54;15.00;;;7.07;;
40471;SDS011;26174;42.908;23.800;2024-01-30T00:53:19;15.13;;;6.93;;
40471;SDS011;26174;42.908;23.800;2024-01-30T00:55:45;14.57;;;7.15;;
40471;SDS011;26174;42.908;23.800;2024-01-30T00:58:10;13.73;;;7.35;;
40471;SDS011;26174;42.908;23.800;2024-01-30T01:00:36;17.10;;;7.28;;
40471;SDS011;26174;42.908;23.800;2024-01-30T01:03:02;13.20;;;7.03;;
40471;SDS011;26174;42.908;23.800;2024-01-30T01:05:28;17.73;;;7.95;;
40471;SDS011;26174;42.908;23.800;2024-01-30T01:07:53;19.13;;;8.27;;
40471;SDS011;26174;42.908;23.800;2024-01-30T01:10:19;18.45;;;8.18;;
40471;SDS011;26174;42.908;23.800;2024-01-30T01:12:45;18.08;;;7.93;;
40471;SDS011;26174;42.908;23.800;2024-01-30T01:15:11;18.25;;;8.75;;
40471;SDS011;26174;42.908;23.800;2024-01-30T01:17:37;22.15;;;10.00;;
40471;SDS011;26174;42.908;23.800;2024-01-30T01:20:03;32.55;;;11.90;;
40471;SDS011;26174;42.908;23.800;2024-01-30T01:22:30;21.20;;;8.75;;
40471;SDS011;26174;42.908;23.800;2024-01-30T01:24:56;20.33;;;7.85;;
40471;SDS011;26174;42.908;23.800;2024-01-30T01:27:22;16.98;;;8.02;;
40471;SDS011;26174;42.908;23.800;2024-01-30T01:29:47;15.65;;;7.57;;
40471;SDS011;26174;42.908;23.800;2024-01-30T01:32:13;15.30;;;6.38;;
40471;SDS011;26174;42.908;23.800;2024-01-30T01:34:39;14.10;;;6.65;;
40471;SDS011;26174;42.908;23.800;2024-01-30T01:37:04;17.67;;;7.03;;
40471;SDS011;26174;42.908;23.800;2024-01-30T01:39:30;19.77;;;8.48;;
40471;SDS011;26174;42.908;23.800;2024-01-30T01:41:55;19.42;;;7.80;;
40471;SDS011;26174;42.908;23.800;2024-01-30T01:44:21;18.80;;;7.90;;
40471;SDS011;26174;42.908;23.800;2024-01-30T01:46:47;17.23;;;7.57;;
40471;SDS011;26174;42.908;23.800;2024-01-30T01:49:13;13.75;;;6.88;;
40471;SDS011;26174;42.908;23.800;2024-01-30T01:51:39;16.10;;;7.43;;
40471;SDS011;26174;42.908;23.800;2024-01-30T01:54:06;14.95;;;7.25;;
40471;SDS011;26174;42.908;23.800;2024-01-30T01:56:32;13.88;;;6.88;;
40471;SDS011;26174;42.908;23.800;2024-01-30T01:59:07;18.27;;;7.88;;
40471;SDS011;26174;42.908;23.800;2024-01-30T02:01:33;16.52;;;8.32;;
40471;SDS011;26174;42.908;23.800;2024-01-30T02:04:00;19.35;;;8.93;;
40471;SDS011;26174;42.908;23.800;2024-01-30T02:06:26;17.83;;;8.35;;
40471;SDS011;26174;42.908;23.800;2024-01-30T02:08:52;18.52;;;7.90;;
40471;SDS011;26174;42.908;23.800;2024-01-30T02:11:18;16.00;;;8.05;;
40471;SDS011;26174;42.908;23.800;2024-01-30T02:13:44;18.80;;;8.95;;
40471;SDS011;26174;42.908;23.800;2024-01-30T02:16:10;26.48;;;10.43;;
40471;SDS011;26174;42.908;23.800;2024-01-30T02:18:36;22.55;;;10.55;;
40471;SDS011;26174;42.908;23.800;2024-01-30T02:21:07;17.77;;;7.97;;
40471;SDS011;26174;42.908;23.800;2024-01-30T02:23:33;33.25;;;15.63;;
40471;SDS011;26174;42.908;23.800;2024-01-30T02:26:00;18.98;;;8.35;;
40471;SDS011;26174;42.908;23.800;2024-01-30T02:28:25;15.32;;;7.22;;
40471;SDS011;26174;42.908;23.800;2024-01-30T02:30:52;14.20;;;6.82;;
40471;SDS011;26174;42.908;23.800;2024-01-30T02:33:27;21.08;;;8.38;;
40471;SDS011;26174;42.908;23.800;2024-01-30T02:35:52;20.80;;;9.90;;
40471;SDS011;26174;42.908;23.800;2024-01-30T02:38:18;14.70;;;7.18;;
40471;SDS011;26174;42.908;23.800;2024-01-30T02:40:44;14.70;;;7.43;;
40471;SDS011;26174;42.908;23.800;2024-01-30T02:43:09;15.00;;;7.03;;
40471;SDS011;26174;42.908;23.800;2024-01-30T02:45:35;15.70;;;7.18;;
40471;SDS011;26174;42.908;23.800;2024-01-30T02:48:01;16.17;;;7.25;;
40471;SDS011;26174;42.908;23.800;2024-01-30T02:50:27;20.50;;;7.97;;
40471;SDS011;26174;42.908;23.800;2024-01-30T02:52:52;16.52;;;7.18;;
40471;SDS011;26174;42.908;23.800;2024-01-30T02:55:18;16.13;;;7.40;;
40471;SDS011;26174;42.908;23.800;2024-01-30T02:57:43;18.95;;;7.28;;
40471;SDS011;26174;42.908;23.800;2024-01-30T03:00:09;16.40;;;7.57;;
40471;SDS011;26174;42.908;23.800;2024-01-30T03:02:36;16.55;;;8.38;;
40471;SDS011;26174;42.908;23.800;2024-01-30T03:05:02;18.65;;;8.55;;
40471;SDS011;26174;42.908;23.800;2024-01-30T03:07:29;15.43;;;7.20;;
40471;SDS011;26174;42.908;23.800;2024-01-30T03:09:54;18.67;;;8.52;;
40471;SDS011;26174;42.908;23.800;2024-01-30T03:12:20;17.42;;;8.70;;
40471;SDS011;26174;42.908;23.800;2024-01-30T03:14:46;19.50;;;8.15;;
40471;SDS011;26174;42.908;23.800;2024-01-30T03:17:12;20.75;;;9.25;;
40471;SDS011;26174;42.908;23.800;2024-01-30T03:19:38;24.73;;;9.80;;
40471;SDS011;26174;42.908;23.800;2024-01-30T03:22:03;25.15;;;10.82;;
40471;SDS011;26174;42.908;23.800;2024-01-30T03:24:29;25.25;;;10.57;;
40471;SDS011;26174;42.908;23.800;2024-01-30T03:26:54;20.70;;;9.45;;
40471;SDS011;26174;42.908;23.800;2024-01-30T03:29:20;18.77;;;8.60;;
40471;SDS011;26174;42.908;23.800;2024-01-30T03:31:46;19.88;;;9.60;;
40471;SDS011;26174;42.908;23.800;2024-01-30T03:34:12;20.38;;;8.20;;
40471;SDS011;26174;42.908;23.800;2024-01-30T03:36:37;15.48;;;8.02;;
40471;SDS011;26174;42.908;23.800;2024-01-30T03:39:03;16.05;;;7.63;;
40471;SDS011;26174;42.908;23.800;2024-01-30T03:41:32;14.82;;;7.15;;
40471;SDS011;26174;42.908;23.800;2024-01-30T03:43:58;17.90;;;8.10;;
40471;SDS011;26174;42.908;23.800;2024-01-30T03:46:24;25.63;;;10.02;;
40471;SDS011;26174;42.908;23.800;2024-01-30T03:48:49;22.85;;;11.32;;
40471;SDS011;26174;42.908;23.800;2024-01-30T03:51:15;17.50;;;8.98;;
40471;SDS011;26174;42.908;23.800;2024-01-30T03:53:41;20.48;;;9.32;;
40471;SDS011;26174;42.908;23.800;2024-01-30T03:56:07;19.50;;;8.70;;
40471;SDS011;26174;42.908;23.800;2024-01-30T03:58:33;20.00;;;9.00;;
40471;SDS011;26174;42.908;23.800;2024-01-30T04:01:02;17.35;;;8.43;;
40471;SDS011;26174;42.908;23.800;2024-01-30T04:03:28;19.38;;;8.82;;
40471;SDS011;26174;42.908;23.800;2024-01-30T04:05:54;19.55;;;9.10;;
40471;SDS011;26174;42.908;23.800;2024-01-30T04:08:20;21.00;;;9.20;;
40471;SDS011;26174;42.908;23.800;2024-01-30T04:10:46;23.80;;;9.35;;
40471;SDS011;26174;42.908;23.800;2024-01-30T04:13:12;19.58;;;8.80;;
40471;SDS011;26174;42.908;23.800;2024-01-30T04:15:38;19.50;;;8.27;;
40471;SDS011;26174;42.908;23.800;2024-01-30T04:18:04;25.70;;;9.07;;
40471;SDS011;26174;42.908;23.800;2024-01-30T04:20:33;20.45;;;7.57;;
40471;SDS011;26174;42.908;23.800;2024-01-30T04:22:59;15.68;;;8.10;;
40471;SDS011;26174;42.908;23.800;2024-01-30T04:25:24;21.25;;;8.90;;
40471;SDS011;26174;42.908;23.800;2024-01-30T04:27:50;26.48;;;9.93;;
40471;SDS011;26174;42.908;23.800;2024-01-30T04:30:16;25.60;;;9.50;;
40471;SDS011;26174;42.908;23.800;2024-01-30T04:32:42;22.85;;;10.38;;
40471;SDS011;26174;42.908;23.800;2024-01-30T04:35:08;19.90;;;9.52;;
40471;SDS011;26174;42.908;23.800;2024-01-30T04:37:33;19.75;;;8.80;;
40471;SDS011;26174;42.908;23.800;2024-01-30T04:39:59;19.75;;;8.60;;
40471;SDS011;26174;42.908;23.800;2024-01-30T04:42:24;19.40;;;8.77;;
40471;SDS011;26174;42.908;23.800;2024-01-30T04:44:50;19.65;;;9.18;;
40471;SDS011;26174;42.908;23.800;2024-01-30T04:47:16;17.38;;;9.02;;
40471;SDS011;26174;42.908;23.800;2024-01-30T04:49:42;20.65;;;9.57;;
40471;SDS011;26174;42.908;23.800;2024-01-30T04:52:08;18.63;;;8.32;;
40471;SDS011;26174;42.908;23.800;2024-01-30T04:54:34;21.38;;;9.13;;
40471;SDS011;26174;42.908;23.800;2024-01-30T04:57:00;21.10;;;8.30;;
40471;SDS011;26174;42.908;23.800;2024-01-30T04:59:26;36.22;;;12.55;;
40471;SDS011;26174;42.908;23.800;2024-01-30T05:01:52;26.35;;;11.32;;
40471;SDS011;26174;42.908;23.800;2024-01-30T05:04:17;26.65;;;12.75;;
40471;SDS011;26174;42.908;23.800;2024-01-30T05:06:43;30.15;;;12.13;;
40471;SDS011;26174;42.908;23.800;2024-01-30T05:09:09;26.23;;;12.73;;
40471;SDS011;26174;42.908;23.800;2024-01-30T05:11:37;22.83;;;11.02;;
40471;SDS011;26174;42.908;23.800;2024-01-30T05:14:04;22.65;;;10.57;;
40471;SDS011;26174;42.908;23.800;2024-01-30T05:16:30;24.27;;;10.77;;
40471;SDS011;26174;42.908;23.800;2024-01-30T05:18:56;19.92;;;9.77;;
40471;SDS011;26174;42.908;23.800;2024-01-30T05:21:22;18.35;;;8.82;;
40471;SDS011;26174;42.908;23.800;2024-01-30T05:23:47;19.55;;;8.93;;
40471;SDS011;26174;42.908;23.800;2024-01-30T05:26:13;25.80;;;9.50;;
40471;SDS011;26174;42.908;23.800;2024-01-30T05:28:42;18.40;;;9.27;;
40471;SDS011;26174;42.908;23.800;2024-01-30T05:31:09;21.15;;;8.93;;
40471;SDS011;26174;42.908;23.800;2024-01-30T05:33:35;18.60;;;7.95;;
40471;SDS011;26174;42.908;23.800;2024-01-30T05:36:01;20.27;;;9.45;;
40471;SDS011;26174;42.908;23.800;2024-01-30T05:38:27;17.38;;;8.13;;
40471;SDS011;26174;42.908;23.800;2024-01-30T05:40:57;22.67;;;10.05;;
40471;SDS011;26174;42.908;23.800;2024-01-30T05:43:25;33.13;;;15.13;;
40471;SDS011;26174;42.908;23.800;2024-01-30T05:45:51;21.17;;;10.32;;
40471;SDS011;26174;42.908;23.800;2024-01-30T05:48:17;22.13;;;10.02;;
40471;SDS011;26174;42.908;23.800;2024-01-30T05:50:43;22.92;;;10.82;;
40471;SDS011;26174;42.908;23.800;2024-01-30T05:53:10;22.08;;;9.10;;
40471;SDS011;26174;42.908;23.800;2024-01-30T05:55:36;22.77;;;9.00;;
40471;SDS011;26174;42.908;23.800;2024-01-30T05:58:01;18.80;;;8.30;;
40471;SDS011;26174;42.908;23.800;2024-01-30T06:02:55;20.48;;;10.25;;
40471;SDS011;26174;42.908;23.800;2024-01-30T06:05:21;26.70;;;13.25;;
40471;SDS011;26174;42.908;23.800;2024-01-30T06:07:49;21.30;;;10.02;;
40471;SDS011;26174;42.908;23.800;2024-01-30T06:10:15;38.22;;;13.32;;
40471;SDS011;26174;42.908;23.800;2024-01-30T06:12:45;22.75;;;11.10;;
40471;SDS011;26174;42.908;23.800;2024-01-30T06:15:11;27.38;;;11.80;;
40471;SDS011;26174;42.908;23.800;2024-01-30T06:17:37;25.70;;;10.77;;
40471;SDS011;26174;42.908;23.800;2024-01-30T06:20:04;23.27;;;9.90;;
40471;SDS011;26174;42.908;23.800;2024-01-30T06:22:30;23.55;;;12.15;;
40471;SDS011;26174;42.908;23.800;2024-01-30T06:24:59;27.60;;;12.90;;
40471;SDS011;26174;42.908;23.800;2024-01-30T06:27:24;34.47;;;12.70;;
40471;SDS011;26174;42.908;23.800;2024-01-30T06:29:50;32.47;;;14.18;;
40471;SDS011;26174;42.908;23.800;2024-01-30T06:32:16;52.15;;;16.13;;
40471;SDS011;26174;42.908;23.800;2024-01-30T06:34:41;34.38;;;15.05;;
40471;SDS011;26174;42.908;23.800;2024-01-30T06:37:09;29.13;;;13.00;;
40471;SDS011;26174;42.908;23.800;2024-01-30T06:39:35;44.05;;;20.30;;
40471;SDS011;26174;42.908;23.800;2024-01-30T06:42:00;32.50;;;12.50;;
40471;SDS011;26174;42.908;23.800;2024-01-30T06:44:26;27.35;;;10.90;;
40471;SDS011;26174;42.908;23.800;2024-01-30T06:46:51;29.00;;;11.48;;
40471;SDS011;26174;42.908;23.800;2024-01-30T06:49:17;22.70;;;10.98;;
40471;SDS011;26174;42.908;23.800;2024-01-30T06:51:43;34.30;;;14.38;;
40471;SDS011;26174;42.908;23.800;2024-01-30T06:54:08;29.25;;;12.32;;
40471;SDS011;26174;42.908;23.800;2024-01-30T06:56:34;31.58;;;12.60;;
40471;SDS011;26174;42.908;23.800;2024-01-30T06:59:00;24.15;;;11.15;;
40471;SDS011;26174;42.908;23.800;2024-01-30T07:01:29;28.25;;;12.65;;
40471;SDS011;26174;42.908;23.800;2024-01-30T07:03:55;34.83;;;14.63;;
40471;SDS011;26174;42.908;23.800;2024-01-30T07:06:20;43.38;;;13.57;;
40471;SDS011;26174;42.908;23.800;2024-01-30T07:08:47;22.15;;;11.13;;
40471;SDS011;26174;42.908;23.800;2024-01-30T07:11:20;19.77;;;9.10;;
40471;SDS011;26174;42.908;23.800;2024-01-30T07:13:52;23.25;;;9.50;;
40471;SDS011;26174;42.908;23.800;2024-01-30T07:16:19;23.60;;;10.43;;
40471;SDS011;26174;42.908;23.800;2024-01-30T07:18:44;23.90;;;10.60;;
40471;SDS011;26174;42.908;23.800;2024-01-30T07:21:10;35.35;;;10.95;;
40471;SDS011;26174;42.908;23.800;2024-01-30T07:23:36;25.60;;;10.93;;
40471;SDS011;26174;42.908;23.800;2024-01-30T07:26:04;34.83;;;13.57;;
40471;SDS011;26174;42.908;23.800;2024-01-30T07:28:31;30.10;;;13.52;;
40471;SDS011;26174;42.908;23.800;2024-01-30T07:30:57;34.17;;;11.68;;
40471;SDS011;26174;42.908;23.800;2024-01-30T07:33:23;21.20;;;9.95;;
40471;SDS011;26174;42.908;23.800;2024-01-30T07:35:48;25.25;;;10.82;;
40471;SDS011;26174;42.908;23.800;2024-01-30T07:38:14;19.88;;;9.82;;
40471;SDS011;26174;42.908;23.800;2024-01-30T07:40:39;18.75;;;9.52;;
40471;SDS011;26174;42.908;23.800;2024-01-30T07:43:06;25.63;;;10.38;;
40471;SDS011;26174;42.908;23.800;2024-01-30T07:45:32;24.30;;;10.02;;
40471;SDS011;26174;42.908;23.800;2024-01-30T07:48:05;27.27;;;11.57;;
40471;SDS011;26174;42.908;23.800;2024-01-30T07:50:31;32.22;;;12.25;;
40471;SDS011;26174;42.908;23.800;2024-01-30T07:52:58;22.25;;;9.85;;
40471;SDS011;26174;42.908;23.800;2024-01-30T07:55:25;31.48;;;11.52;;
40471;SDS011;26174;42.908;23.800;2024-01-30T07:57:53;27.88;;;10.55;;
40471;SDS011;26174;42.908;23.800;2024-01-30T08:00:22;22.63;;;9.73;;
40471;SDS011;26174;42.908;23.800;2024-01-30T08:02:48;17.75;;;8.00;;
40471;SDS011;26174;42.908;23.800;2024-01-30T08:05:14;18.58;;;8.32;;
40471;SDS011;26174;42.908;23.800;2024-01-30T08:07:46;13.52;;;6.97;;
40471;SDS011;26174;42.908;23.800;2024-01-30T08:10:12;18.02;;;7.15;;
40471;SDS011;26174;42.908;23.800;2024-01-30T08:12:38;14.38;;;6.68;;
40471;SDS011;26174;42.908;23.800;2024-01-30T08:15:04;21.15;;;7.85;;
40471;SDS011;26174;42.908;23.800;2024-01-30T08:17:30;16.35;;;6.93;;
40471;SDS011;26174;42.908;23.800;2024-01-30T08:19:56;16.13;;;6.40;;
40471;SDS011;26174;42.908;23.800;2024-01-30T08:22:22;14.77;;;7.35;;
40471;SDS011;26174;42.908;23.800;2024-01-30T08:24:47;15.15;;;6.38;;
40471;SDS011;26174;42.908;23.800;2024-01-30T08:27:13;10.20;;;5.10;;
40471;SDS011;26174;42.908;23.800;2024-01-30T08:29:38;8.45;;;4.43;;
40471;SDS011;26174;42.908;23.800;2024-01-30T08:32:05;11.13;;;5.72;;
40471;SDS011;26174;42.908;23.800;2024-01-30T08:34:31;11.23;;;4.97;;
40471;SDS011;26174;42.908;23.800;2024-01-30T08:36:57;8.75;;;4.65;;
40471;SDS011;26174;42.908;23.800;2024-01-30T08:39:23;7.95;;;4.05;;
40471;SDS011;26174;42.908;23.800;2024-01-30T08:41:48;12.40;;;4.50;;
40471;SDS011;26174;42.908;23.800;2024-01-30T08:44:14;10.50;;;5.50;;
40471;SDS011;26174;42.908;23.800;2024-01-30T08:46:39;21.52;;;5.82;;
40471;SDS011;26174;42.908;23.800;2024-01-30T08:49:05;7.85;;;4.03;;
40471;SDS011;26174;42.908;23.800;2024-01-30T08:51:31;13.30;;;5.57;;
40471;SDS011;26174;42.908;23.800;2024-01-30T08:53:56;7.65;;;4.10;;
40471;SDS011;26174;42.908;23.800;2024-01-30T08:56:22;10.40;;;4.90;;
40471;SDS011;26174;42.908;23.800;2024-01-30T08:58:48;19.65;;;6.47;;
40471;SDS011;26174;42.908;23.800;2024-01-30T09:01:14;16.52;;;5.90;;
40471;SDS011;26174;42.908;23.800;2024-01-30T09:03:39;15.73;;;4.55;;
40471;SDS011;26174;42.908;23.800;2024-01-30T09:06:12;7.40;;;3.55;;
40471;SDS011;26174;42.908;23.800;2024-01-30T09:08:38;5.07;;;3.15;;
40471;SDS011;26174;42.908;23.800;2024-01-30T09:11:11;17.02;;;5.90;;
40471;SDS011;26174;42.908;23.800;2024-01-30T09:13:38;7.75;;;3.53;;
40471;SDS011;26174;42.908;23.800;2024-01-30T09:16:04;16.15;;;6.45;;
40471;SDS011;26174;42.908;23.800;2024-01-30T09:18:30;8.07;;;4.10;;
40471;SDS011;26174;42.908;23.800;2024-01-30T09:20:55;10.85;;;4.10;;
40471;SDS011;26174;42.908;23.800;2024-01-30T09:23:21;15.43;;;3.83;;
40471;SDS011;26174;42.908;23.800;2024-01-30T09:25:47;16.58;;;5.18;;
40471;SDS011;26174;42.908;23.800;2024-01-30T09:28:13;9.30;;;3.10;;
40471;SDS011;26174;42.908;23.800;2024-01-30T09:30:39;5.35;;;2.65;;
40471;SDS011;26174;42.908;23.800;2024-01-30T09:33:04;7.20;;;2.80;;
40471;SDS011;26174;42.908;23.800;2024-01-30T09:35:31;6.45;;;3.08;;
40471;SDS011;26174;42.908;23.800;2024-01-30T09:37:57;13.60;;;3.38;;
40471;SDS011;26174;42.908;23.800;2024-01-30T09:40:23;14.55;;;4.70;;
40471;SDS011;26174;42.908;23.800;2024-01-30T09:42:52;10.20;;;3.78;;
40471;SDS011;26174;42.908;23.800;2024-01-30T09:45:19;4.18;;;2.83;;
40471;SDS011;26174;42.908;23.800;2024-01-30T09:47:46;10.90;;;2.83;;
40471;SDS011;26174;42.908;23.800;2024-01-30T09:50:12;9.20;;;2.80;;
40471;SDS011;26174;42.908;23.800;2024-01-30T09:52:45;5.40;;;2.85;;
40471;SDS011;26174;42.908;23.800;2024-01-30T09:55:13;11.82;;;4.03;;
40471;SDS011;26174;42.908;23.800;2024-01-30T09:57:39;9.20;;;3.30;;
40471;SDS011;26174;42.908;23.800;2024-01-30T10:00:05;10.82;;;4.03;;
40471;SDS011;26174;42.908;23.800;2024-01-30T10:02:34;17.73;;;5.07;;
40471;SDS011;26174;42.908;23.800;2024-01-30T10:05:01;13.00;;;4.80;;
40471;SDS011;26174;42.908;23.800;2024-01-30T10:07:27;18.95;;;6.82;;
40471;SDS011;26174;42.908;23.800;2024-01-30T10:09:53;17.45;;;6.80;;
40471;SDS011;26174;42.908;23.800;2024-01-30T10:12:20;6.95;;;3.72;;
40471;SDS011;26174;42.908;23.800;2024-01-30T10:14:46;7.45;;;3.42;;
40471;SDS011;26174;42.908;23.800;2024-01-30T10:17:12;6.40;;;3.47;;
40471;SDS011;26174;42.908;23.800;2024-01-30T10:19:38;4.97;;;2.88;;
40471;SDS011;26174;42.908;23.800;2024-01-30T10:22:04;17.13;;;7.28;;
40471;SDS011;26174;42.908;23.800;2024-01-30T10:24:29;10.48;;;5.10;;
40471;SDS011;26174;42.908;23.800;2024-01-30T10:26:55;7.72;;;3.20;;
40471;SDS011;26174;42.908;23.800;2024-01-30T10:29:23;4.75;;;2.83;;
40471;SDS011;26174;42.908;23.800;2024-01-30T10:31:59;5.68;;;2.88;;
40471;SDS011;26174;42.908;23.800;2024-01-30T10:34:25;6.70;;;3.10;;
40471;SDS011;26174;42.908;23.800;2024-01-30T10:36:53;11.02;;;3.33;;
40471;SDS011;26174;42.908;23.800;2024-01-30T10:39:38;7.03;;;3.65;;
40471;SDS011;26174;42.908;23.800;2024-01-30T10:42:05;5.38;;;2.63;;
40471;SDS011;26174;42.908;23.800;2024-01-30T10:47:37;7.25;;;3.40;;
40471;SDS011;26174;42.908;23.800;2024-01-30T10:50:05;8.68;;;3.40;;
40471;SDS011;26174;42.908;23.800;2024-01-30T10:52:33;12.55;;;4.75;;
40471;SDS011;26174;42.908;23.800;2024-01-30T10:54:58;15.77;;;5.78;;
40471;SDS011;26174;42.908;23.800;2024-01-30T10:57:25;14.15;;;4.82;;
40471;SDS011;26174;42.908;23.800;2024-01-30T11:00:01;9.90;;;4.68;;
40471;SDS011;26174;42.908;23.800;2024-01-30T11:02:30;12.30;;;5.20;;
40471;SDS011;26174;42.908;23.800;2024-01-30T11:04:58;31.48;;;9.02;;
40471;SDS011;26174;42.908;23.800;2024-01-30T11:07:28;9.60;;;4.65;;
40471;SDS011;26174;42.908;23.800;2024-01-30T11:12:23;6.45;;;3.33;;
40471;SDS011;26174;42.908;23.800;2024-01-30T11:14:50;9.40;;;3.50;;
40471;SDS011;26174;42.908;23.800;2024-01-30T11:17:27;8.48;;;4.03;;
40471;SDS011;26174;42.908;23.800;2024-01-30T11:19:53;8.63;;;4.28;;
40471;SDS011;26174;42.908;23.800;2024-01-30T11:22:20;13.40;;;5.03;;
40471;SDS011;26174;42.908;23.800;2024-01-30T11:24:46;9.77;;;4.68;;
40471;SDS011;26174;42.908;23.800;2024-01-30T11:27:12;17.85;;;4.15;;
40471;SDS011;26174;42.908;23.800;2024-01-30T11:29:38;8.13;;;4.18;;
40471;SDS011;26174;42.908;23.800;2024-01-30T11:32:05;8.60;;;4.25;;
40471;SDS011;26174;42.908;23.800;2024-01-30T11:34:32;11.05;;;3.97;;
40471;SDS011;26174;42.908;23.800;2024-01-30T11:36:59;7.65;;;3.80;;
40471;SDS011;26174;42.908;23.800;2024-01-30T11:39:29;9.70;;;4.25;;
40471;SDS011;26174;42.908;23.800;2024-01-30T11:41:55;12.05;;;4.10;;
40471;SDS011;26174;42.908;23.800;2024-01-30T11:44:21;6.22;;;3.47;;
40471;SDS011;26174;42.908;23.800;2024-01-30T11:46:50;12.95;;;4.18;;
40471;SDS011;26174;42.908;23.800;2024-01-30T11:49:17;10.02;;;4.25;;
40471;SDS011;26174;42.908;23.800;2024-01-30T11:51:45;7.97;;;4.38;;
40471;SDS011;26174;42.908;23.800;2024-01-30T11:54:14;10.27;;;5.13;;
40471;SDS011;26174;42.908;23.800;2024-01-30T11:56:41;7.78;;;4.32;;
40471;SDS011;26174;42.908;23.800;2024-01-30T11:59:07;7.78;;;4.20;;
40471;SDS011;26174;42.908;23.800;2024-01-30T12:01:33;9.07;;;4.25;;
40471;SDS011;26174;42.908;23.800;2024-01-30T12:03:59;13.20;;;4.75;;
40471;SDS011;26174;42.908;23.800;2024-01-30T12:06:25;9.35;;;4.60;;
40471;SDS011;26174;42.908;23.800;2024-01-30T12:08:57;8.52;;;4.15;;
40471;SDS011;26174;42.908;23.800;2024-01-30T12:11:29;11.93;;;4.10;;
40471;SDS011;26174;42.908;23.800;2024-01-30T12:13:55;14.00;;;4.03;;
40471;SDS011;26174;42.908;23.800;2024-01-30T12:16:21;13.93;;;5.93;;
40471;SDS011;26174;42.908;23.800;2024-01-30T12:18:47;12.35;;;4.57;;
40471;SDS011;26174;42.908;23.800;2024-01-30T12:21:15;12.45;;;4.65;;
40471;SDS011;26174;42.908;23.800;2024-01-30T12:23:41;8.02;;;4.13;;
40471;SDS011;26174;42.908;23.800;2024-01-30T12:26:08;8.88;;;4.70;;
40471;SDS011;26174;42.908;23.800;2024-01-30T12:28:36;12.18;;;5.15;;
40471;SDS011;26174;42.908;23.800;2024-01-30T12:31:05;9.02;;;4.65;;
40471;SDS011;26174;42.908;23.800;2024-01-30T12:33:31;7.72;;;4.32;;
40471;SDS011;26174;42.908;23.800;2024-01-30T12:35:57;9.07;;;4.97;;
40471;SDS011;26174;42.908;23.800;2024-01-30T12:38:23;7.07;;;3.90;;
40471;SDS011;26174;42.908;23.800;2024-01-30T12:40:50;9.82;;;5.15;;
40471;SDS011;26174;42.908;23.800;2024-01-30T12:43:20;12.15;;;4.93;;
40471;SDS011;26174;42.908;23.800;2024-01-30T12:45:46;12.15;;;4.82;;
40471;SDS011;26174;42.908;23.800;2024-01-30T12:48:12;9.63;;;4.28;;
40471;SDS011;26174;42.908;23.800;2024-01-30T12:50:38;9.55;;;3.90;;
40471;SDS011;26174;42.908;23.800;2024-01-30T12:53:03;9.20;;;4.50;;
40471;SDS011;26174;42.908;23.800;2024-01-30T12:55:29;8.32;;;4.97;;
40471;SDS011;26174;42.908;23.800;2024-01-30T12:57:58;7.72;;;4.30;;
40471;SDS011;26174;42.908;23.800;2024-01-30T13:00:24;7.03;;;3.70;;
40471;SDS011;26174;42.908;23.800;2024-01-30T13:02:49;7.88;;;3.85;;
40471;SDS011;26174;42.908;23.800;2024-01-30T13:05:15;7.55;;;3.40;;
40471;SDS011;26174;42.908;23.800;2024-01-30T13:07:40;11.43;;;4.80;;
40471;SDS011;26174;42.908;23.800;2024-01-30T13:10:06;10.05;;;4.80;;
40471;SDS011;26174;42.908;23.800;2024-01-30T13:12:32;6.45;;;3.25;;
40471;SDS011;26174;42.908;23.800;2024-01-30T13:14:58;19.75;;;4.55;;
40471;SDS011;26174;42.908;23.800;2024-01-30T13:17:37;6.82;;;3.40;;
40471;SDS011;26174;42.908;23.800;2024-01-30T13:20:03;10.68;;;5.13;;
40471;SDS011;26174;42.908;23.800;2024-01-30T13:22:35;10.48;;;3.47;;
40471;SDS011;26174;42.908;23.800;2024-01-30T13:25:05;10.32;;;4.18;;
40471;SDS011;26174;42.908;23.800;2024-01-30T13:27:34;8.13;;;3.25;;
40471;SDS011;26174;42.908;23.800;2024-01-30T13:30:00;5.78;;;3.35;;
40471;SDS011;26174;42.908;23.800;2024-01-30T13:32:26;13.73;;;3.88;;
40471;SDS011;26174;42.908;23.800;2024-01-30T13:34:52;7.45;;;3.83;;
40471;SDS011;26174;42.908;23.800;2024-01-30T13:37:17;4.93;;;3.15;;
40471;SDS011;26174;42.908;23.800;2024-01-30T13:39:43;7.00;;;3.53;;
40471;SDS011;26174;42.908;23.800;2024-01-30T13:42:08;6.20;;;3.72;;
40471;SDS011;26174;42.908;23.800;2024-01-30T13:44:35;10.77;;;5.22;;
40471;SDS011;26174;42.908;23.800;2024-01-30T13:47:01;8.35;;;4.60;;
40471;SDS011;26174;42.908;23.800;2024-01-30T13:49:27;11.70;;;3.72;;
40471;SDS011;26174;42.908;23.800;2024-01-30T13:51:53;9.18;;;4.53;;
40471;SDS011;26174;42.908;23.800;2024-01-30T13:54:19;10.98;;;5.30;;
40471;SDS011;26174;42.908;23.800;2024-01-30T13:56:44;6.95;;;4.28;;
40471;SDS011;26174;42.908;23.800;2024-01-30T13:59:10;6.40;;;2.97;;
40471;SDS011;26174;42.908;23.800;2024-01-30T14:01:36;6.55;;;3.58;;
40471;SDS011;26174;42.908;23.800;2024-01-30T14:04:02;12.18;;;4.00;;
40471;SDS011;26174;42.908;23.800;2024-01-30T14:06:28;12.70;;;4.40;;
40471;SDS011;26174;42.908;23.800;2024-01-30T14:08:54;10.00;;;4.40;;
40471;SDS011;26174;42.908;23.800;2024-01-30T14:11:20;15.20;;;4.45;;
40471;SDS011;26174;42.908;23.800;2024-01-30T14:13:46;6.57;;;3.88;;
40471;SDS011;26174;42.908;23.800;2024-01-30T14:16:11;7.65;;;4.40;;
40471;SDS011;26174;42.908;23.800;2024-01-30T14:18:37;7.55;;;4.35;;
40471;SDS011;26174;42.908;23.800;2024-01-30T14:21:03;7.05;;;3.95;;
40471;SDS011;26174;42.908;23.800;2024-01-30T14:23:28;9.25;;;5.07;;
40471;SDS011;26174;42.908;23.800;2024-01-30T14:25:54;14.68;;;7.97;;